sensor_id;sensor_type;location;lat;lon;timestamp;pressure;altitude;pressure_sealevel;temperature;humidity
58775;BME280;44545;47.480;19.024;2023-06-22T03:12:46;100383.47;;;20.62;100.00
58775;BME280;44545;47.480;19.024;2023-06-22T03:15:48;100383.47;;;20.62;100.00
58775;BME280;44545;47.480;19.024;2023-06-22T03:18:51;100383.63;;;20.13;100.00
58775;BME280;44545;47.480;19.024;2023-06-22T03:21:53;100380.00;;;20.09;100.00
58775;BME280;44545;47.480;19.024;2023-06-22T03:24:56;100378.12;;;20.02;100.00
58775;BME280;44545;47.480;19.024;2023-06-22T03:27:58;100368.75;;;20.24;100.00
58775;BME280;44545;47.480;19.024;2023-06-22T03:31:03;100375.91;;;20.28;100.00
58775;BME280;44545;47.480;19.024;2023-06-22T03:34:07;100381.12;;;20.25;100.00
58775;BME280;44545;47.480;19.024;2023-06-22T03:37:09;100381.41;;;20.45;100.00
58775;BME280;44545;47.480;19.024;2023-06-22T03:40:12;100378.94;;;20.54;100.00
58775;BME280;44545;47.480;19.024;2023-06-22T03:43:15;100374.62;;;20.63;100.00
58775;BME280;44545;47.480;19.024;2023-06-22T03:46:17;100375.31;;;20.49;100.00
58775;BME280;44545;47.480;19.024;2023-06-22T03:49:20;100373.34;;;20.36;100.00
58775;BME280;44545;47.480;19.024;2023-06-22T03:52:22;100378.19;;;20.65;100.00
58775;BME280;44545;47.480;19.024;2023-06-22T03:55:24;100369.56;;;20.80;100.00
58775;BME280;44545;47.480;19.024;2023-06-22T03:58:27;100375.91;;;20.95;100.00
58775;BME280;44545;47.480;19.024;2023-06-22T04:01:35;100378.63;;;21.00;100.00
58775;BME280;44545;47.480;19.024;2023-06-22T04:04:39;100378.75;;;21.09;100.00
58775;BME280;44545;47.480;19.024;2023-06-22T04:07:41;100378.78;;;21.12;100.00
58775;BME280;44545;47.480;19.024;2023-06-22T04:10:44;100385.19;;;21.33;100.00
58775;BME280;44545;47.480;19.024;2023-06-22T04:13:46;100388.75;;;21.36;100.00
58775;BME280;44545;47.480;19.024;2023-06-22T04:16:51;100391.41;;;21.36;100.00
58775;BME280;44545;47.480;19.024;2023-06-22T04:19:53;100383.56;;;21.46;100.00
58775;BME280;44545;47.480;19.024;2023-06-22T04:22:56;100390.72;;;21.53;100.00
58775;BME280;44545;47.480;19.024;2023-06-22T04:25:58;100394.28;;;21.56;100.00
58775;BME280;44545;47.480;19.024;2023-06-22T04:29:02;100393.75;;;21.96;100.00
58775;BME280;44545;47.480;19.024;2023-06-22T04:32:07;100390.28;;;22.03;100.00
58775;BME280;44545;47.480;19.024;2023-06-22T04:35:10;100387.69;;;22.12;100.00
58775;BME280;44545;47.480;19.024;2023-06-22T04:38:13;100394.94;;;22.32;100.00
58775;BME280;44545;47.480;19.024;2023-06-22T04:41:15;100389.66;;;22.36;100.00
58775;BME280;44545;47.480;19.024;2023-06-22T04:44:27;100394.19;;;22.54;100.00
58775;BME280;44545;47.480;19.024;2023-06-22T04:47:29;100403.13;;;22.70;100.00
58775;BME280;44545;47.480;19.024;2023-06-22T04:50:32;100406.75;;;22.83;100.00
58775;BME280;44545;47.480;19.024;2023-06-22T04:53:34;100404.19;;;23.03;100.00
58775;BME280;44545;47.480;19.024;2023-06-22T04:56:37;100408.66;;;23.11;100.00
58775;BME280;44545;47.480;19.024;2023-06-22T04:59:40;100398.12;;;23.42;100.00
58775;BME280;44545;47.480;19.024;2023-06-22T05:02:45;100407.91;;;23.68;100.00
58775;BME280;44545;47.480;19.024;2023-06-22T05:05:48;100401.72;;;23.87;100.00
58775;BME280;44545;47.480;19.024;2023-06-22T05:08:54;100407.06;;;23.93;100.00
58775;BME280;44545;47.480;19.024;2023-06-22T05:12:00;100408.84;;;23.93;100.00
58775;BME280;44545;47.480;19.024;2023-06-22T05:15:08;100414.16;;;23.90;100.00
58775;BME280;44545;47.480;19.024;2023-06-22T05:18:10;100415.06;;;23.98;100.00
58775;BME280;44545;47.480;19.024;2023-06-22T05:21:14;100422.16;;;23.94;100.00
58775;BME280;44545;47.480;19.024;2023-06-22T05:24:16;100416.81;;;23.94;100.00
58775;BME280;44545;47.480;19.024;2023-06-22T05:27:18;100434.47;;;23.39;100.00
58775;BME280;44545;47.480;19.024;2023-06-22T05:30:21;100437.06;;;23.15;100.00
58775;BME280;44545;47.480;19.024;2023-06-22T05:33:23;100440.59;;;23.10;100.00
58775;BME280;44545;47.480;19.024;2023-06-22T05:36:26;100434.38;;;23.14;100.00
58775;BME280;44545;47.480;19.024;2023-06-22T05:39:28;100429.16;;;23.49;100.00
58775;BME280;44545;47.480;19.024;2023-06-22T05:42:31;100438.06;;;23.57;100.00
58775;BME280;44545;47.480;19.024;2023-06-22T05:45:33;100441.66;;;23.70;100.00
58775;BME280;44545;47.480;19.024;2023-06-22T05:48:35;100448.81;;;24.36;100.00
58775;BME280;44545;47.480;19.024;2023-06-22T05:51:38;100443.41;;;24.82;100.00
58775;BME280;44545;47.480;19.024;2023-06-22T05:54:41;100443.41;;;24.86;100.00
58775;BME280;44545;47.480;19.024;2023-06-22T05:57:44;100450.37;;;25.21;100.00
58775;BME280;44545;47.480;19.024;2023-06-22T06:00:46;100450.31;;;25.37;100.00
58775;BME280;44545;47.480;19.024;2023-06-22T06:03:49;100451.81;;;25.84;98.91
58775;BME280;44545;47.480;19.024;2023-06-22T06:06:52;100447.19;;;26.09;98.41
58775;BME280;44545;47.480;19.024;2023-06-22T06:09:55;100445.25;;;26.25;92.54
58775;BME280;44545;47.480;19.024;2023-06-22T06:12:57;100454.94;;;26.38;89.57
58775;BME280;44545;47.480;19.024;2023-06-22T06:16:00;100449.38;;;26.64;91.63
58775;BME280;44545;47.480;19.024;2023-06-22T06:19:02;100453.47;;;26.97;86.45
58775;BME280;44545;47.480;19.024;2023-06-22T06:22:05;100453.38;;;27.03;75.92
58775;BME280;44545;47.480;19.024;2023-06-22T06:25:08;100447.53;;;26.69;74.99
58775;BME280;44545;47.480;19.024;2023-06-22T06:28:10;100450.78;;;26.97;73.11
58775;BME280;44545;47.480;19.024;2023-06-22T06:31:14;100436.59;;;27.60;71.23
58775;BME280;44545;47.480;19.024;2023-06-22T06:34:20;100441.31;;;27.43;68.55
58775;BME280;44545;47.480;19.024;2023-06-22T06:37:22;100440.44;;;27.42;68.49
58775;BME280;44545;47.480;19.024;2023-06-22T06:40:25;100438.41;;;27.57;70.04
58775;BME280;44545;47.480;19.024;2023-06-22T06:43:27;100434.28;;;27.96;67.54
58775;BME280;44545;47.480;19.024;2023-06-22T06:46:30;100432.50;;;28.48;62.46
58775;BME280;44545;47.480;19.024;2023-06-22T06:49:33;100434.00;;;28.64;62.56
58775;BME280;44545;47.480;19.024;2023-06-22T06:52:36;100429.84;;;28.91;59.70
58775;BME280;44545;47.480;19.024;2023-06-22T06:55:40;100432.12;;;28.68;61.52
58775;BME280;44545;47.480;19.024;2023-06-22T06:58:43;100427.22;;;28.90;61.89
58775;BME280;44545;47.480;19.024;2023-06-22T07:01:47;100423.31;;;29.08;62.97
58775;BME280;44545;47.480;19.024;2023-06-22T07:04:51;100422.75;;;28.42;57.76
58775;BME280;44545;47.480;19.024;2023-06-22T07:07:53;100423.03;;;28.77;59.95
58775;BME280;44545;47.480;19.024;2023-06-22T07:10:55;100417.25;;;29.38;56.30
58775;BME280;44545;47.480;19.024;2023-06-22T07:13:58;100419.22;;;29.71;55.88
58775;BME280;44545;47.480;19.024;2023-06-22T07:17:01;100422.16;;;29.97;56.52
58775;BME280;44545;47.480;19.024;2023-06-22T07:20:04;100424.03;;;29.94;56.55
58775;BME280;44545;47.480;19.024;2023-06-22T07:23:16;100417.97;;;30.21;54.60
58775;BME280;44545;47.480;19.024;2023-06-22T07:26:22;100418.22;;;29.75;53.91
58775;BME280;44545;47.480;19.024;2023-06-22T07:29:31;100421.25;;;29.59;55.21
58775;BME280;44545;47.480;19.024;2023-06-22T07:32:34;100423.69;;;30.08;53.73
58775;BME280;44545;47.480;19.024;2023-06-22T07:35:37;100430.97;;;30.38;52.62
58775;BME280;44545;47.480;19.024;2023-06-22T07:38:39;100432.28;;;30.91;50.46
58775;BME280;44545;47.480;19.024;2023-06-22T07:41:41;100429.97;;;30.75;50.47
58775;BME280;44545;47.480;19.024;2023-06-22T07:44:43;100422.50;;;30.86;50.71
58775;BME280;44545;47.480;19.024;2023-06-22T07:47:46;100419.47;;;30.33;50.55
58775;BME280;44545;47.480;19.024;2023-06-22T07:50:48;100417.19;;;30.51;50.75
58775;BME280;44545;47.480;19.024;2023-06-22T07:53:51;100410.94;;;30.81;51.08
58775;BME280;44545;47.480;19.024;2023-06-22T07:56:55;100418.56;;;30.67;48.87
58775;BME280;44545;47.480;19.024;2023-06-22T07:59:58;100409.41;;;30.40;50.66
58775;BME280;44545;47.480;19.024;2023-06-22T08:03:01;100406.22;;;30.58;51.46
58775;BME280;44545;47.480;19.024;2023-06-22T08:06:07;100413.47;;;31.19;48.61
58775;BME280;44545;47.480;19.024;2023-06-22T08:09:11;100402.44;;;30.97;50.55
58775;BME280;44545;47.480;19.024;2023-06-22T08:12:13;100404.59;;;30.85;49.13
58775;BME280;44545;47.480;19.024;2023-06-22T08:15:16;100396.84;;;31.34;50.61
58775;BME280;44545;47.480;19.024;2023-06-22T08:18:19;100400.03;;;31.48;46.99
58775;BME280;44545;47.480;19.024;2023-06-22T08:21:21;100399.03;;;31.79;49.32
58775;BME280;44545;47.480;19.024;2023-06-22T08:24:24;100392.03;;;31.73;47.23
58775;BME280;44545;47.480;19.024;2023-06-22T08:27:26;100397.34;;;32.28;45.15
58775;BME280;44545;47.480;19.024;2023-06-22T08:30:30;100387.59;;;31.99;49.71
58775;BME280;44545;47.480;19.024;2023-06-22T08:33:32;100389.47;;;31.97;47.83
58775;BME280;44545;47.480;19.024;2023-06-22T08:36:35;100397.50;;;31.99;47.35
58775;BME280;44545;47.480;19.024;2023-06-22T08:39:45;100393.22;;;32.18;46.47
58775;BME280;44545;47.480;19.024;2023-06-22T08:42:48;100385.78;;;32.00;47.69
58775;BME280;44545;47.480;19.024;2023-06-22T08:45:50;100388.41;;;32.78;46.35
58775;BME280;44545;47.480;19.024;2023-06-22T08:48:53;100381.41;;;32.96;44.38
58775;BME280;44545;47.480;19.024;2023-06-22T08:51:55;100383.22;;;33.20;44.24
58775;BME280;44545;47.480;19.024;2023-06-22T08:54:59;100377.53;;;33.50;44.87
58775;BME280;44545;47.480;19.024;2023-06-22T08:58:01;100368.22;;;33.79;43.70
58775;BME280;44545;47.480;19.024;2023-06-22T09:01:04;100376.41;;;34.41;41.12
58775;BME280;44545;47.480;19.024;2023-06-22T09:04:06;100369.91;;;34.65;40.57
58775;BME280;44545;47.480;19.024;2023-06-22T09:07:12;100372.00;;;34.38;41.52
58775;BME280;44545;47.480;19.024;2023-06-22T09:10:14;100373.84;;;34.17;41.73
58775;BME280;44545;47.480;19.024;2023-06-22T09:13:16;100368.91;;;34.27;41.66
58775;BME280;44545;47.480;19.024;2023-06-22T09:16:19;100370.84;;;35.61;37.89
58775;BME280;44545;47.480;19.024;2023-06-22T09:19:22;100354.63;;;36.13;38.84
58775;BME280;44545;47.480;19.024;2023-06-22T09:22:24;100353.28;;;37.21;36.69
58775;BME280;44545;47.480;19.024;2023-06-22T09:25:31;100361.00;;;37.77;34.56
58775;BME280;44545;47.480;19.024;2023-06-22T09:28:34;100380.50;;;39.17;32.51
58775;BME280;44545;47.480;19.024;2023-06-22T09:31:36;100372.66;;;39.54;31.10
58775;BME280;44545;47.480;19.024;2023-06-22T09:34:38;100354.06;;;39.46;33.30
58775;BME280;44545;47.480;19.024;2023-06-22T09:37:41;100387.88;;;41.02;29.25
58775;BME280;44545;47.480;19.024;2023-06-22T09:40:43;100376.22;;;41.97;28.79
58775;BME280;44545;47.480;19.024;2023-06-22T09:43:46;100396.59;;;42.29;27.11
58775;BME280;44545;47.480;19.024;2023-06-22T09:46:49;100418.59;;;43.43;25.88
58775;BME280;44545;47.480;19.024;2023-06-22T09:49:52;100394.75;;;42.87;26.00
58775;BME280;44545;47.480;19.024;2023-06-22T09:52:54;100407.56;;;44.30;24.78
58775;BME280;44545;47.480;19.024;2023-06-22T09:55:57;100410.59;;;44.69;23.87
58775;BME280;44545;47.480;19.024;2023-06-22T09:58:59;100325.44;;;41.80;27.39
58775;BME280;44545;47.480;19.024;2023-06-22T10:02:19;100298.47;;;40.53;29.70
58775;BME280;44545;47.480;19.024;2023-06-22T10:05:22;100401.53;;;43.28;24.58
58775;BME280;44545;47.480;19.024;2023-06-22T10:08:24;100391.69;;;44.54;24.64
58775;BME280;44545;47.480;19.024;2023-06-22T10:11:27;100386.47;;;43.98;24.55
58775;BME280;44545;47.480;19.024;2023-06-22T10:14:32;100392.47;;;44.66;23.96
58775;BME280;44545;47.480;19.024;2023-06-22T10:17:34;100326.62;;;41.65;26.30
58775;BME280;44545;47.480;19.024;2023-06-22T10:20:37;100315.66;;;41.17;27.40
58775;BME280;44545;47.480;19.024;2023-06-22T10:23:40;100312.63;;;41.09;27.91
58775;BME280;44545;47.480;19.024;2023-06-22T10:26:42;100383.78;;;43.76;24.76
58775;BME280;44545;47.480;19.024;2023-06-22T10:29:44;100442.84;;;48.06;21.02
58775;BME280;44545;47.480;19.024;2023-06-22T10:32:47;100391.66;;;45.06;22.29
58775;BME280;44545;47.480;19.024;2023-06-22T10:35:49;100328.03;;;42.75;24.84
58775;BME280;44545;47.480;19.024;2023-06-22T10:38:51;100370.19;;;45.31;23.04
58775;BME280;44545;47.480;19.024;2023-06-22T10:41:55;100386.22;;;45.66;21.83
58775;BME280;44545;47.480;19.024;2023-06-22T10:44:58;100456.88;;;48.66;18.87
58775;BME280;44545;47.480;19.024;2023-06-22T10:48:00;100455.50;;;48.62;18.31
58775;BME280;44545;47.480;19.024;2023-06-22T10:51:03;100457.75;;;48.49;18.08
58775;BME280;44545;47.480;19.024;2023-06-22T10:54:05;100394.81;;;47.71;19.37
58775;BME280;44545;47.480;19.024;2023-06-22T10:57:07;100399.25;;;47.36;19.47
58775;BME280;44545;47.480;19.024;2023-06-22T11:00:11;100377.22;;;47.90;19.77
58775;BME280;44545;47.480;19.024;2023-06-22T11:03:13;100416.34;;;48.83;18.32
58775;BME280;44545;47.480;19.024;2023-06-22T11:06:17;100395.72;;;47.06;19.25
58775;BME280;44545;47.480;19.024;2023-06-22T11:09:19;100318.03;;;45.68;21.96
58775;BME280;44545;47.480;19.024;2023-06-22T11:12:31;100343.91;;;47.00;20.93
58775;BME280;44545;47.480;19.024;2023-06-22T11:15:33;100300.56;;;44.17;22.57
58775;BME280;44545;47.480;19.024;2023-06-22T11:18:36;100164.72;;;40.62;28.36
58775;BME280;44545;47.480;19.024;2023-06-22T11:21:39;100184.72;;;36.90;33.07
58775;BME280;44545;47.480;19.024;2023-06-22T11:24:41;100254.94;;;36.32;33.71
58775;BME280;44545;47.480;19.024;2023-06-22T11:27:44;100271.63;;;37.07;33.27
58775;BME280;44545;47.480;19.024;2023-06-22T11:30:47;100264.06;;;37.12;33.49
58775;BME280;44545;47.480;19.024;2023-06-22T11:33:49;100268.16;;;36.56;33.73
58775;BME280;44545;47.480;19.024;2023-06-22T11:36:52;100281.44;;;37.09;34.00
58775;BME280;44545;47.480;19.024;2023-06-22T11:39:54;100259.78;;;35.75;35.21
58775;BME280;44545;47.480;19.024;2023-06-22T11:43:08;100274.69;;;34.74;36.60
58775;BME280;44545;47.480;19.024;2023-06-22T11:46:10;100264.47;;;34.61;37.89
58775;BME280;44545;47.480;19.024;2023-06-22T11:49:13;100264.94;;;34.70;38.16
58775;BME280;44545;47.480;19.024;2023-06-22T11:52:15;100264.00;;;34.51;37.74
58775;BME280;44545;47.480;19.024;2023-06-22T11:55:20;100251.63;;;34.45;37.77
58775;BME280;44545;47.480;19.024;2023-06-22T11:58:22;100260.66;;;34.84;37.04
58775;BME280;44545;47.480;19.024;2023-06-22T12:01:25;100255.62;;;34.76;39.26
58775;BME280;44545;47.480;19.024;2023-06-22T12:04:28;100255.62;;;35.14;38.20
58775;BME280;44545;47.480;19.024;2023-06-22T12:07:30;100262.50;;;35.02;37.23
58775;BME280;44545;47.480;19.024;2023-06-22T12:10:32;100255.31;;;35.01;36.67
58775;BME280;44545;47.480;19.024;2023-06-22T12:13:35;100252.19;;;34.14;38.94
58775;BME280;44545;47.480;19.024;2023-06-22T12:16:37;100241.00;;;34.41;38.69
58775;BME280;44545;47.480;19.024;2023-06-22T12:19:40;100262.34;;;35.05;36.93
58775;BME280;44545;47.480;19.024;2023-06-22T12:22:43;100233.44;;;34.49;37.08
58775;BME280;44545;47.480;19.024;2023-06-22T12:25:45;100223.31;;;34.52;36.66
58775;BME280;44545;47.480;19.024;2023-06-22T12:28:48;100230.59;;;34.90;36.69
58775;BME280;44545;47.480;19.024;2023-06-22T12:31:50;100206.44;;;34.66;39.97
58775;BME280;44545;47.480;19.024;2023-06-22T12:34:53;100222.56;;;35.06;36.35
58775;BME280;44545;47.480;19.024;2023-06-22T12:37:55;100219.72;;;35.09;35.89
58775;BME280;44545;47.480;19.024;2023-06-22T12:40:58;100212.75;;;34.27;37.17
58775;BME280;44545;47.480;19.024;2023-06-22T12:44:01;100226.59;;;33.60;37.96
58775;BME280;44545;47.480;19.024;2023-06-22T12:47:04;100212.59;;;33.91;38.68
58775;BME280;44545;47.480;19.024;2023-06-22T12:50:07;100213.16;;;33.58;38.57
58775;BME280;44545;47.480;19.024;2023-06-22T12:53:10;100215.97;;;34.36;37.43
58775;BME280;44545;47.480;19.024;2023-06-22T12:56:12;100209.59;;;34.18;37.03
58775;BME280;44545;47.480;19.024;2023-06-22T12:59:14;100199.06;;;34.30;36.97
58775;BME280;44545;47.480;19.024;2023-06-22T13:02:16;100206.47;;;34.27;36.94
58775;BME280;44545;47.480;19.024;2023-06-22T13:05:19;100213.16;;;33.79;37.18
58775;BME280;44545;47.480;19.024;2023-06-22T13:08:21;100202.00;;;34.07;37.97
58775;BME280;44545;47.480;19.024;2023-06-22T13:11:37;100199.87;;;34.14;37.51
58775;BME280;44545;47.480;19.024;2023-06-22T13:14:39;100199.28;;;34.07;36.43
58775;BME280;44545;47.480;19.024;2023-06-22T13:17:41;100186.69;;;34.06;36.91
58775;BME280;44545;47.480;19.024;2023-06-22T13:20:44;100187.28;;;33.92;37.16
58775;BME280;44545;47.480;19.024;2023-06-22T13:23:47;100188.16;;;33.31;37.07
58775;BME280;44545;47.480;19.024;2023-06-22T13:26:50;100186.91;;;32.96;37.74
58775;BME280;44545;47.480;19.024;2023-06-22T13:29:52;100186.13;;;33.36;37.09
58775;BME280;44545;47.480;19.024;2023-06-22T13:32:55;100179.22;;;33.50;36.80
58775;BME280;44545;47.480;19.024;2023-06-22T13:35:57;100181.44;;;33.62;36.30
58775;BME280;44545;47.480;19.024;2023-06-22T13:39:00;100180.28;;;33.67;36.60
58775;BME280;44545;47.480;19.024;2023-06-22T13:42:02;100167.47;;;33.10;38.05
58775;BME280;44545;47.480;19.024;2023-06-22T13:45:06;100180.25;;;33.27;40.10
58775;BME280;44545;47.480;19.024;2023-06-22T13:48:08;100177.19;;;33.34;40.24
58775;BME280;44545;47.480;19.024;2023-06-22T13:51:11;100176.25;;;33.15;39.70
58775;BME280;44545;47.480;19.024;2023-06-22T13:54:14;100165.81;;;33.06;41.86
58775;BME280;44545;47.480;19.024;2023-06-22T13:57:31;100166.31;;;33.15;39.74
58775;BME280;44545;47.480;19.024;2023-06-22T14:00:33;100163.63;;;33.36;39.41
58775;BME280;44545;47.480;19.024;2023-06-22T14:03:36;100158.19;;;33.58;41.65
58775;BME280;44545;47.480;19.024;2023-06-22T14:06:38;100169.66;;;33.83;37.50
58775;BME280;44545;47.480;19.024;2023-06-22T14:09:40;100156.94;;;33.65;39.64
58775;BME280;44545;47.480;19.024;2023-06-22T14:12:43;100151.53;;;33.44;40.41
58775;BME280;44545;47.480;19.024;2023-06-22T14:15:45;100151.78;;;33.60;41.84
58775;BME280;44545;47.480;19.024;2023-06-22T14:18:50;100155.50;;;33.58;42.34
58775;BME280;44545;47.480;19.024;2023-06-22T14:21:52;100151.81;;;33.38;40.81
58775;BME280;44545;47.480;19.024;2023-06-22T14:24:54;100146.19;;;33.02;42.07
58775;BME280;44545;47.480;19.024;2023-06-22T14:27:59;100143.53;;;32.56;43.18
58775;BME280;44545;47.480;19.024;2023-06-22T14:31:01;100138.91;;;32.58;42.88
58775;BME280;44545;47.480;19.024;2023-06-22T14:34:04;100134.28;;;32.38;43.42
58775;BME280;44545;47.480;19.024;2023-06-22T14:37:08;100131.63;;;32.60;44.38
58775;BME280;44545;47.480;19.024;2023-06-22T14:40:12;100120.78;;;32.38;42.71
58775;BME280;44545;47.480;19.024;2023-06-22T14:43:14;100124.19;;;32.22;43.66
58775;BME280;44545;47.480;19.024;2023-06-22T14:46:18;100118.00;;;32.18;43.04
58775;BME280;44545;47.480;19.024;2023-06-22T14:49:21;100112.00;;;32.33;44.01
58775;BME280;44545;47.480;19.024;2023-06-22T14:52:24;100121.78;;;32.36;44.17
58775;BME280;44545;47.480;19.024;2023-06-22T14:55:26;100117.59;;;32.29;44.04
58775;BME280;44545;47.480;19.024;2023-06-22T14:58:31;100120.44;;;32.48;45.18
58775;BME280;44545;47.480;19.024;2023-06-22T15:01:37;100112.34;;;32.48;43.30
58775;BME280;44545;47.480;19.024;2023-06-22T15:04:43;100113.38;;;32.22;44.21
